sensor_id;sensor_type;location;lat;lon;timestamp;pressure;altitude;pressure_sealevel;temperature;humidity
77118;BME280;66072;50.238;19.228;2023-06-10T00:01:31;98212.95;;;14.61;98.67
77118;BME280;66072;50.238;19.228;2023-06-10T00:03:59;98209.52;;;14.61;98.56
77118;BME280;66072;50.238;19.228;2023-06-10T00:06:27;98214.33;;;14.61;98.38
77118;BME280;66072;50.238;19.228;2023-06-10T00:08:55;98214.86;;;14.58;98.24
77118;BME280;66072;50.238;19.228;2023-06-10T00:11:22;98214.39;;;14.58;98.40
77118;BME280;66072;50.238;19.228;2023-06-10T00:13:50;98214.89;;;14.58;98.61
77118;BME280;66072;50.238;19.228;2023-06-10T00:16:17;98217.48;;;14.58;98.67
77118;BME280;66072;50.238;19.228;2023-06-10T00:18:45;98217.84;;;14.57;98.67
77118;BME280;66072;50.238;19.228;2023-06-10T00:21:13;98216.00;;;14.57;98.47
77118;BME280;66072;50.238;19.228;2023-06-10T00:23:40;98213.69;;;14.55;98.46
77118;BME280;66072;50.238;19.228;2023-06-10T00:26:08;98214.29;;;14.54;98.52
77118;BME280;66072;50.238;19.228;2023-06-10T00:28:36;98215.16;;;14.54;98.60
77118;BME280;66072;50.238;19.228;2023-06-10T00:31:04;98218.20;;;14.55;98.81
77118;BME280;66072;50.238;19.228;2023-06-10T00:33:31;98220.73;;;14.56;98.57
77118;BME280;66072;50.238;19.228;2023-06-10T00:35:59;98223.90;;;14.57;98.68
77118;BME280;66072;50.238;19.228;2023-06-10T00:38:26;98227.50;;;14.60;98.83
77118;BME280;66072;50.238;19.228;2023-06-10T00:40:54;98231.20;;;14.64;98.98
77118;BME280;66072;50.238;19.228;2023-06-10T00:43:24;98233.91;;;14.66;98.94
77118;BME280;66072;50.238;19.228;2023-06-10T00:45:51;98237.20;;;14.69;98.90
77118;BME280;66072;50.238;19.228;2023-06-10T00:48:19;98240.79;;;14.72;99.05
77118;BME280;66072;50.238;19.228;2023-06-10T00:50:47;98237.24;;;14.73;98.99
77118;BME280;66072;50.238;19.228;2023-06-10T00:53:16;98238.61;;;14.76;98.92
77118;BME280;66072;50.238;19.228;2023-06-10T00:55:43;98239.70;;;14.78;99.02
77118;BME280;66072;50.238;19.228;2023-06-10T00:58:12;98242.48;;;14.80;98.87
77118;BME280;66072;50.238;19.228;2023-06-10T01:00:40;98241.80;;;14.83;98.94
77118;BME280;66072;50.238;19.228;2023-06-10T01:03:08;98247.27;;;14.86;98.87
77118;BME280;66072;50.238;19.228;2023-06-10T01:05:37;98242.31;;;14.88;99.06
77118;BME280;66072;50.238;19.228;2023-06-10T01:08:17;98242.11;;;14.91;99.03
77118;BME280;66072;50.238;19.228;2023-06-10T01:10:55;98238.70;;;14.93;98.98
77118;BME280;66072;50.238;19.228;2023-06-10T01:13:25;98239.77;;;14.95;98.86
77118;BME280;66072;50.238;19.228;2023-06-10T01:15:57;98240.31;;;14.97;98.93
77118;BME280;66072;50.238;19.228;2023-06-10T01:18:31;98241.96;;;14.98;98.83
77118;BME280;66072;50.238;19.228;2023-06-10T01:20:59;98244.79;;;14.99;98.80
77118;BME280;66072;50.238;19.228;2023-06-10T01:23:27;98241.34;;;14.99;98.78
77118;BME280;66072;50.238;19.228;2023-06-10T01:26:06;98242.59;;;15.01;98.72
77118;BME280;66072;50.238;19.228;2023-06-10T01:33:51;98246.53;;;15.01;98.59
77118;BME280;66072;50.238;19.228;2023-06-10T01:36:21;98246.05;;;15.01;98.54
77118;BME280;66072;50.238;19.228;2023-06-10T01:38:49;98248.89;;;15.02;98.50
77118;BME280;66072;50.238;19.228;2023-06-10T01:41:18;98248.19;;;15.02;98.55
77118;BME280;66072;50.238;19.228;2023-06-10T01:43:45;98249.20;;;15.03;98.53
77118;BME280;66072;50.238;19.228;2023-06-10T01:46:15;98257.08;;;15.03;98.61
77118;BME280;66072;50.238;19.228;2023-06-10T01:48:44;98257.73;;;15.04;98.65
77118;BME280;66072;50.238;19.228;2023-06-10T01:51:11;98260.48;;;15.04;98.60
77118;BME280;66072;50.238;19.228;2023-06-10T01:53:39;98259.05;;;15.05;98.49
77118;BME280;66072;50.238;19.228;2023-06-10T01:56:09;98259.20;;;15.05;98.52
77118;BME280;66072;50.238;19.228;2023-06-10T01:58:37;98256.96;;;15.05;98.46
77118;BME280;66072;50.238;19.228;2023-06-10T02:01:04;98267.59;;;15.06;98.51
77118;BME280;66072;50.238;19.228;2023-06-10T02:03:32;98264.63;;;15.07;98.49
77118;BME280;66072;50.238;19.228;2023-06-10T02:06:00;98262.59;;;15.06;98.46
77118;BME280;66072;50.238;19.228;2023-06-10T02:08:27;98259.46;;;15.07;98.43
77118;BME280;66072;50.238;19.228;2023-06-10T02:10:55;98258.98;;;15.06;98.19
77118;BME280;66072;50.238;19.228;2023-06-10T02:13:23;98256.64;;;15.05;98.29
77118;BME280;66072;50.238;19.228;2023-06-10T02:15:50;98258.23;;;15.04;98.42
77118;BME280;66072;50.238;19.228;2023-06-10T02:18:18;98254.33;;;15.03;98.49
77118;BME280;66072;50.238;19.228;2023-06-10T02:20:46;98254.71;;;15.02;98.51
77118;BME280;66072;50.238;19.228;2023-06-10T02:23:14;98258.34;;;15.00;98.40
77118;BME280;66072;50.238;19.228;2023-06-10T02:25:41;98262.29;;;14.98;98.50
77118;BME280;66072;50.238;19.228;2023-06-10T02:28:09;98260.42;;;14.97;98.56
77118;BME280;66072;50.238;19.228;2023-06-10T02:30:40;98256.03;;;14.96;98.86
77118;BME280;66072;50.238;19.228;2023-06-10T02:33:08;98259.09;;;14.97;98.92
77118;BME280;66072;50.238;19.228;2023-06-10T02:35:39;98257.92;;;14.96;98.84
77118;BME280;66072;50.238;19.228;2023-06-10T02:38:07;98258.11;;;14.96;98.90
77118;BME280;66072;50.238;19.228;2023-06-10T02:40:34;98263.30;;;14.95;98.89
77118;BME280;66072;50.238;19.228;2023-06-10T02:43:02;98264.36;;;14.95;98.90
77118;BME280;66072;50.238;19.228;2023-06-10T02:45:30;98265.25;;;14.95;98.98
77118;BME280;66072;50.238;19.228;2023-06-10T02:47:57;98267.31;;;14.95;98.76
77118;BME280;66072;50.238;19.228;2023-06-10T02:50:25;98267.45;;;14.95;98.91
77118;BME280;66072;50.238;19.228;2023-06-10T02:52:53;98270.61;;;14.97;99.01
77118;BME280;66072;50.238;19.228;2023-06-10T02:55:20;98275.30;;;14.99;98.91
77118;BME280;66072;50.238;19.228;2023-06-10T02:57:48;98273.77;;;15.01;98.92
77118;BME280;66072;50.238;19.228;2023-06-10T03:00:16;98277.02;;;15.04;98.82
77118;BME280;66072;50.238;19.228;2023-06-10T03:02:44;98271.48;;;15.07;98.92
77118;BME280;66072;50.238;19.228;2023-06-10T03:05:11;98273.35;;;15.10;98.82
77118;BME280;66072;50.238;19.228;2023-06-10T03:07:39;98276.56;;;15.14;98.75
77118;BME280;66072;50.238;19.228;2023-06-10T03:10:07;98274.81;;;15.17;98.79
77118;BME280;66072;50.238;19.228;2023-06-10T03:12:35;98278.83;;;15.18;98.62
77118;BME280;66072;50.238;19.228;2023-06-10T03:15:03;98277.61;;;15.21;98.61
77118;BME280;66072;50.238;19.228;2023-06-10T03:17:32;98275.94;;;15.23;98.54
77118;BME280;66072;50.238;19.228;2023-06-10T03:20:00;98273.60;;;15.24;98.43
77118;BME280;66072;50.238;19.228;2023-06-10T03:22:27;98275.20;;;15.26;98.40
77118;BME280;66072;50.238;19.228;2023-06-10T03:24:55;98276.02;;;15.29;98.30
77118;BME280;66072;50.238;19.228;2023-06-10T03:27:23;98279.61;;;15.32;98.29
77118;BME280;66072;50.238;19.228;2023-06-10T03:29:50;98284.77;;;15.35;98.18
77118;BME280;66072;50.238;19.228;2023-06-10T03:32:21;98287.10;;;15.38;98.10
77118;BME280;66072;50.238;19.228;2023-06-10T03:34:48;98290.79;;;15.42;97.96
77118;BME280;66072;50.238;19.228;2023-06-10T03:37:16;98299.13;;;15.47;98.04
77118;BME280;66072;50.238;19.228;2023-06-10T03:39:44;98298.98;;;15.51;97.88
77118;BME280;66072;50.238;19.228;2023-06-10T03:42:11;98297.59;;;15.54;97.75
77118;BME280;66072;50.238;19.228;2023-06-10T03:44:39;98299.08;;;15.57;97.68
77118;BME280;66072;50.238;19.228;2023-06-10T03:47:07;98299.77;;;15.60;97.73
77118;BME280;66072;50.238;19.228;2023-06-10T03:49:34;98300.59;;;15.63;97.77
77118;BME280;66072;50.238;19.228;2023-06-10T03:52:02;98302.61;;;15.66;97.62
77118;BME280;66072;50.238;19.228;2023-06-10T03:54:29;98305.88;;;15.69;97.46
77118;BME280;66072;50.238;19.228;2023-06-10T03:56:57;98309.61;;;15.72;97.42
77118;BME280;66072;50.238;19.228;2023-06-10T03:59:25;98310.70;;;15.76;97.40
77118;BME280;66072;50.238;19.228;2023-06-10T04:01:52;98310.69;;;15.81;97.30
77118;BME280;66072;50.238;19.228;2023-06-10T04:04:20;98310.95;;;15.87;97.10
77118;BME280;66072;50.238;19.228;2023-06-10T04:06:48;98313.55;;;15.94;97.08
77118;BME280;66072;50.238;19.228;2023-06-10T04:09:15;98311.98;;;16.02;97.05
77118;BME280;66072;50.238;19.228;2023-06-10T04:11:43;98307.52;;;16.06;96.82
77118;BME280;66072;50.238;19.228;2023-06-10T04:14:11;98311.52;;;16.08;96.66
77118;BME280;66072;50.238;19.228;2023-06-10T04:16:38;98313.48;;;16.10;96.53
77118;BME280;66072;50.238;19.228;2023-06-10T04:19:06;98310.77;;;16.14;96.38
77118;BME280;66072;50.238;19.228;2023-06-10T04:21:33;98313.41;;;16.18;96.23
77118;BME280;66072;50.238;19.228;2023-06-10T04:24:04;98311.16;;;16.21;96.09
77118;BME280;66072;50.238;19.228;2023-06-10T04:26:32;98313.49;;;16.22;95.95
77118;BME280;66072;50.238;19.228;2023-06-10T04:29:00;98315.58;;;16.22;95.81
77118;BME280;66072;50.238;19.228;2023-06-10T04:31:27;98314.10;;;16.21;95.68
77118;BME280;66072;50.238;19.228;2023-06-10T04:33:55;98316.58;;;16.20;95.53
77118;BME280;66072;50.238;19.228;2023-06-10T04:36:23;98316.64;;;16.19;95.51
77118;BME280;66072;50.238;19.228;2023-06-10T04:38:50;98315.55;;;16.19;95.41
77118;BME280;66072;50.238;19.228;2023-06-10T04:41:18;98313.78;;;16.20;95.33
77118;BME280;66072;50.238;19.228;2023-06-10T04:43:45;98313.14;;;16.22;95.12
77118;BME280;66072;50.238;19.228;2023-06-10T04:46:13;98313.04;;;16.26;94.95
77118;BME280;66072;50.238;19.228;2023-06-10T04:48:41;98315.86;;;16.32;94.90
77118;BME280;66072;50.238;19.228;2023-06-10T04:51:08;98313.20;;;16.38;94.45
77118;BME280;66072;50.238;19.228;2023-06-10T04:53:36;98315.22;;;16.43;94.21
77118;BME280;66072;50.238;19.228;2023-06-10T04:56:04;98317.73;;;16.49;94.03
77118;BME280;66072;50.238;19.228;2023-06-10T04:58:32;98320.61;;;16.57;93.78
77118;BME280;66072;50.238;19.228;2023-06-10T05:00:59;98319.88;;;16.67;93.52
77118;BME280;66072;50.238;19.228;2023-06-10T05:03:27;98322.40;;;16.78;93.31
77118;BME280;66072;50.238;19.228;2023-06-10T05:05:55;98324.95;;;16.87;92.89
77118;BME280;66072;50.238;19.228;2023-06-10T05:08:22;98329.14;;;16.98;92.49
77118;BME280;66072;50.238;19.228;2023-06-10T05:10:53;98334.83;;;17.07;91.90
77118;BME280;66072;50.238;19.228;2023-06-10T05:13:20;98336.48;;;17.15;91.70
77118;BME280;66072;50.238;19.228;2023-06-10T05:15:48;98337.59;;;17.26;91.08
77118;BME280;66072;50.238;19.228;2023-06-10T05:18:16;98341.14;;;17.38;90.48
77118;BME280;66072;50.238;19.228;2023-06-10T05:20:43;98342.77;;;17.53;90.57
77118;BME280;66072;50.238;19.228;2023-06-10T05:23:11;98342.95;;;17.67;90.31
77118;BME280;66072;50.238;19.228;2023-06-10T05:25:38;98341.91;;;17.73;89.63
77118;BME280;66072;50.238;19.228;2023-06-10T05:28:06;98339.76;;;17.72;88.95
77118;BME280;66072;50.238;19.228;2023-06-10T05:30:34;98339.89;;;17.72;88.94
77118;BME280;66072;50.238;19.228;2023-06-10T05:33:03;98340.29;;;17.75;88.41
77118;BME280;66072;50.238;19.228;2023-06-10T05:35:31;98340.48;;;17.74;88.08
77118;BME280;66072;50.238;19.228;2023-06-10T05:37:58;98339.84;;;17.73;88.10
77118;BME280;66072;50.238;19.228;2023-06-10T05:40:30;98341.54;;;17.69;88.03
77118;BME280;66072;50.238;19.228;2023-06-10T05:42:57;98345.65;;;17.65;88.08
77118;BME280;66072;50.238;19.228;2023-06-10T05:45:25;98346.16;;;17.63;88.15
77118;BME280;66072;50.238;19.228;2023-06-10T05:47:53;98349.05;;;17.59;88.04
77118;BME280;66072;50.238;19.228;2023-06-10T05:50:20;98352.00;;;17.57;88.24
77118;BME280;66072;50.238;19.228;2023-06-10T05:52:48;98354.76;;;17.55;88.18
77118;BME280;66072;50.238;19.228;2023-06-10T05:55:16;98353.65;;;17.51;88.45
77118;BME280;66072;50.238;19.228;2023-06-10T05:57:43;98358.88;;;17.51;88.48
77118;BME280;66072;50.238;19.228;2023-06-10T06:00:11;98359.41;;;17.51;88.51
77118;BME280;66072;50.238;19.228;2023-06-10T06:02:39;98357.98;;;17.51;88.48
77118;BME280;66072;50.238;19.228;2023-06-10T06:05:07;98363.20;;;17.55;88.53
77118;BME280;66072;50.238;19.228;2023-06-10T06:07:36;98365.56;;;17.58;88.66
77118;BME280;66072;50.238;19.228;2023-06-10T06:10:04;98362.87;;;17.59;88.68
77118;BME280;66072;50.238;19.228;2023-06-10T06:12:31;98364.10;;;17.57;88.48
77118;BME280;66072;50.238;19.228;2023-06-10T06:14:59;98363.84;;;17.56;88.54
77118;BME280;66072;50.238;19.228;2023-06-10T06:17:27;98366.31;;;17.55;88.54
77118;BME280;66072;50.238;19.228;2023-06-10T06:19:54;98369.05;;;17.49;88.65
77118;BME280;66072;50.238;19.228;2023-06-10T06:22:22;98372.31;;;17.38;88.87
77118;BME280;66072;50.238;19.228;2023-06-10T06:24:50;98372.02;;;17.24;89.12
77118;BME280;66072;50.238;19.228;2023-06-10T06:27:17;98375.49;;;17.11;89.43
77118;BME280;66072;50.238;19.228;2023-06-10T06:29:45;98379.48;;;17.02;89.67
77118;BME280;66072;50.238;19.228;2023-06-10T06:32:13;98385.85;;;16.95;90.04
77118;BME280;66072;50.238;19.228;2023-06-10T06:34:41;98383.48;;;16.90;90.22
77118;BME280;66072;50.238;19.228;2023-06-10T06:37:08;98387.44;;;16.85;90.35
77118;BME280;66072;50.238;19.228;2023-06-10T06:39:36;98393.94;;;16.84;90.59
77118;BME280;66072;50.238;19.228;2023-06-10T06:42:04;98396.46;;;16.85;90.70
77118;BME280;66072;50.238;19.228;2023-06-10T06:44:32;98398.50;;;16.88;90.86
77118;BME280;66072;50.238;19.228;2023-06-10T06:46:59;98401.47;;;16.95;90.76
77118;BME280;66072;50.238;19.228;2023-06-10T06:49:27;98401.91;;;17.00;90.71
77118;BME280;66072;50.238;19.228;2023-06-10T06:51:55;98407.25;;;17.05;90.46
77118;BME280;66072;50.238;19.228;2023-06-10T06:54:22;98407.75;;;17.10;90.33
77118;BME280;66072;50.238;19.228;2023-06-10T06:56:50;98409.16;;;17.17;90.37
77118;BME280;66072;50.238;19.228;2023-06-10T06:59:19;98411.71;;;17.27;90.04
77118;BME280;66072;50.238;19.228;2023-06-10T07:01:47;98408.53;;;17.39;90.01
77118;BME280;66072;50.238;19.228;2023-06-10T07:04:15;98414.23;;;17.57;89.86
77118;BME280;66072;50.238;19.228;2023-06-10T07:06:43;98417.52;;;17.78;89.58
77118;BME280;66072;50.238;19.228;2023-06-10T07:09:11;98417.23;;;17.95;89.20
77118;BME280;66072;50.238;19.228;2023-06-10T07:11:39;98423.60;;;18.09;89.03
77118;BME280;66072;50.238;19.228;2023-06-10T07:14:07;98422.91;;;18.20;88.82
77118;BME280;66072;50.238;19.228;2023-06-10T07:16:35;98428.30;;;18.31;88.54
77118;BME280;66072;50.238;19.228;2023-06-10T07:19:03;98427.91;;;18.40;88.21
77118;BME280;66072;50.238;19.228;2023-06-10T07:21:35;98428.02;;;18.49;87.80
77118;BME280;66072;50.238;19.228;2023-06-10T07:24:03;98425.70;;;18.57;87.57
77118;BME280;66072;50.238;19.228;2023-06-10T07:26:31;98429.11;;;18.67;87.01
77118;BME280;66072;50.238;19.228;2023-06-10T07:28:58;98423.15;;;18.78;86.91
77118;BME280;66072;50.238;19.228;2023-06-10T07:31:26;98425.16;;;18.90;86.19
77118;BME280;66072;50.238;19.228;2023-06-10T07:33:54;98422.62;;;18.96;85.80
77118;BME280;66072;50.238;19.228;2023-06-10T07:36:21;98424.69;;;18.98;85.46
77118;BME280;66072;50.238;19.228;2023-06-10T07:38:49;98425.84;;;18.99;85.23
77118;BME280;66072;50.238;19.228;2023-06-10T07:41:17;98426.84;;;19.05;85.16
77118;BME280;66072;50.238;19.228;2023-06-10T07:43:46;98429.52;;;19.19;84.45
77118;BME280;66072;50.238;19.228;2023-06-10T07:46:14;98430.04;;;19.34;84.25
77118;BME280;66072;50.238;19.228;2023-06-10T07:48:41;98425.30;;;19.55;84.06
77118;BME280;66072;50.238;19.228;2023-06-10T07:51:09;98424.80;;;19.80;83.37
77118;BME280;66072;50.238;19.228;2023-06-10T07:53:37;98424.16;;;20.04;82.23
77118;BME280;66072;50.238;19.228;2023-06-10T07:56:05;98427.58;;;20.35;81.60
77118;BME280;66072;50.238;19.228;2023-06-10T07:58:33;98426.20;;;20.70;80.22
77118;BME280;66072;50.238;19.228;2023-06-10T08:01:00;98425.19;;;21.09;79.88
77118;BME280;66072;50.238;19.228;2023-06-10T08:03:28;98431.02;;;21.53;79.00
77118;BME280;66072;50.238;19.228;2023-06-10T08:05:56;98433.33;;;21.90;77.38
77118;BME280;66072;50.238;19.228;2023-06-10T08:08:24;98433.05;;;22.18;76.23
77118;BME280;66072;50.238;19.228;2023-06-10T08:10:52;98429.33;;;22.40;76.44
77118;BME280;66072;50.238;19.228;2023-06-10T08:13:20;98432.11;;;22.60;75.24
77118;BME280;66072;50.238;19.228;2023-06-10T08:15:47;98436.38;;;22.63;73.94
77118;BME280;66072;50.238;19.228;2023-06-10T08:18:15;98435.03;;;22.68;73.24
77118;BME280;66072;50.238;19.228;2023-06-10T08:20:43;98435.10;;;22.69;72.36
77118;BME280;66072;50.238;19.228;2023-06-10T08:23:11;98433.69;;;22.86;72.28
77118;BME280;66072;50.238;19.228;2023-06-10T08:25:39;98432.20;;;23.06;71.95
77118;BME280;66072;50.238;19.228;2023-06-10T08:28:07;98433.03;;;23.29;72.36
77118;BME280;66072;50.238;19.228;2023-06-10T08:30:35;98434.57;;;23.45;72.39
77118;BME280;66072;50.238;19.228;2023-06-10T08:33:02;98436.42;;;23.62;71.97
77118;BME280;66072;50.238;19.228;2023-06-10T08:35:30;98435.70;;;23.69;70.60
77118;BME280;66072;50.238;19.228;2023-06-10T08:37:59;98436.58;;;23.74;69.62
77118;BME280;66072;50.238;19.228;2023-06-10T08:40:30;98439.84;;;23.90;69.53
77118;BME280;66072;50.238;19.228;2023-06-10T08:43:15;98442.20;;;24.13;69.12
77118;BME280;66072;50.238;19.228;2023-06-10T08:45:48;98441.17;;;24.37;68.80
77118;BME280;66072;50.238;19.228;2023-06-10T08:48:17;98438.30;;;24.49;67.16
77118;BME280;66072;50.238;19.228;2023-06-10T08:50:47;98442.82;;;24.54;67.56
77118;BME280;66072;50.238;19.228;2023-06-10T08:53:18;98444.33;;;24.63;66.85
77118;BME280;66072;50.238;19.228;2023-06-10T08:55:50;98451.56;;;24.73;66.43
77118;BME280;66072;50.238;19.228;2023-06-10T08:58:20;98453.11;;;24.82;65.95
77118;BME280;66072;50.238;19.228;2023-06-10T09:00:51;98453.30;;;25.00;65.63
77118;BME280;66072;50.238;19.228;2023-06-10T09:03:19;98451.20;;;25.26;65.71
77118;BME280;66072;50.238;19.228;2023-06-10T09:05:48;98450.52;;;25.50;63.93
77118;BME280;66072;50.238;19.228;2023-06-10T09:08:16;98453.96;;;25.52;63.50
77118;BME280;66072;50.238;19.228;2023-06-10T09:10:44;98446.65;;;25.53;62.57
77118;BME280;66072;50.238;19.228;2023-06-10T09:13:12;98453.03;;;25.62;63.24
77118;BME280;66072;50.238;19.228;2023-06-10T09:15:40;98451.08;;;25.56;63.44
77118;BME280;66072;50.238;19.228;2023-06-10T09:18:08;98449.69;;;25.32;63.73
77118;BME280;66072;50.238;19.228;2023-06-10T09:20:36;98455.05;;;25.04;64.18
77118;BME280;66072;50.238;19.228;2023-06-10T09:23:04;98455.02;;;24.85;65.04
77118;BME280;66072;50.238;19.228;2023-06-10T09:25:37;98452.75;;;24.87;64.63
77118;BME280;66072;50.238;19.228;2023-06-10T09:28:13;98452.16;;;25.15;64.68
77118;BME280;66072;50.238;19.228;2023-06-10T09:30:42;98446.86;;;25.27;61.94
77118;BME280;66072;50.238;19.228;2023-06-10T09:33:12;98446.13;;;25.50;62.13
77118;BME280;66072;50.238;19.228;2023-06-10T09:35:48;98441.23;;;25.76;62.05
77118;BME280;66072;50.238;19.228;2023-06-10T09:38:21;98446.45;;;25.81;61.14
77118;BME280;66072;50.238;19.228;2023-06-10T09:40:54;98449.35;;;25.66;59.45
77118;BME280;66072;50.238;19.228;2023-06-10T09:43:22;98453.95;;;25.48;60.15
77118;BME280;66072;50.238;19.228;2023-06-10T09:45:51;98448.08;;;25.22;60.88
77118;BME280;66072;50.238;19.228;2023-06-10T09:48:19;98445.13;;;25.12;60.83
77118;BME280;66072;50.238;19.228;2023-06-10T09:50:48;98442.96;;;25.31;60.22
77118;BME280;66072;50.238;19.228;2023-06-10T09:53:17;98451.78;;;25.69;61.04
77118;BME280;66072;50.238;19.228;2023-06-10T09:55:45;98456.09;;;26.11;59.91
77118;BME280;66072;50.238;19.228;2023-06-10T09:58:14;98461.67;;;26.45;58.91
77118;BME280;66072;50.238;19.228;2023-06-10T10:00:42;98457.42;;;26.82;58.09
77118;BME280;66072;50.238;19.228;2023-06-10T10:03:10;98461.18;;;26.86;56.43
77118;BME280;66072;50.238;19.228;2023-06-10T10:05:38;98459.64;;;26.52;57.09
77118;BME280;66072;50.238;19.228;2023-06-10T10:08:06;98457.64;;;26.57;57.46
77118;BME280;66072;50.238;19.228;2023-06-10T10:10:34;98454.02;;;26.80;57.25
77118;BME280;66072;50.238;19.228;2023-06-10T10:13:01;98451.39;;;27.15;55.43
77118;BME280;66072;50.238;19.228;2023-06-10T10:15:33;98451.70;;;27.60;54.42
77118;BME280;66072;50.238;19.228;2023-06-10T10:18:06;98454.96;;;28.15;52.75
77118;BME280;66072;50.238;19.228;2023-06-10T10:20:49;98456.55;;;28.87;51.70
77118;BME280;66072;50.238;19.228;2023-06-10T10:23:24;98460.96;;;29.19;48.12
77118;BME280;66072;50.238;19.228;2023-06-10T10:25:57;98452.05;;;29.47;47.23
77118;BME280;66072;50.238;19.228;2023-06-10T10:28:41;98457.95;;;29.61;46.92
77118;BME280;66072;50.238;19.228;2023-06-10T10:31:15;98461.77;;;30.01;47.36
77118;BME280;66072;50.238;19.228;2023-06-10T10:33:51;98462.61;;;30.59;46.18
77118;BME280;66072;50.238;19.228;2023-06-10T10:36:21;98460.94;;;31.01;43.05
77118;BME280;66072;50.238;19.228;2023-06-10T10:38:51;98464.17;;;30.83;43.00
77118;BME280;66072;50.238;19.228;2023-06-10T10:41:21;98461.92;;;30.80;43.04
77118;BME280;66072;50.238;19.228;2023-06-10T10:43:51;98459.66;;;31.31;43.94
77118;BME280;66072;50.238;19.228;2023-06-10T10:46:20;98458.80;;;32.12;40.51
77118;BME280;66072;50.238;19.228;2023-06-10T10:48:54;98453.55;;;32.04;39.54
77118;BME280;66072;50.238;19.228;2023-06-10T10:51:23;98456.75;;;32.84;38.50
77118;BME280;66072;50.238;19.228;2023-06-10T10:54:12;98451.91;;;33.28;36.99
77118;BME280;66072;50.238;19.228;2023-06-10T11:02:17;98451.40;;;34.42;32.49
77118;BME280;66072;50.238;19.228;2023-06-10T11:04:47;98450.29;;;34.05;33.61
77118;BME280;66072;50.238;19.228;2023-06-10T11:07:20;98452.94;;;33.58;33.67
77118;BME280;66072;50.238;19.228;2023-06-10T11:10:11;98448.40;;;33.65;33.47
77118;BME280;66072;50.238;19.228;2023-06-10T11:15:27;98440.27;;;33.91;33.65
77118;BME280;66072;50.238;19.228;2023-06-10T11:20:51;98434.52;;;36.98;31.24
77118;BME280;66072;50.238;19.228;2023-06-10T11:33:58;98436.23;;;39.29;25.97
77118;BME280;66072;50.238;19.228;2023-06-10T11:36:28;98429.89;;;39.69;25.84
77118;BME280;66072;50.238;19.228;2023-06-10T11:38:57;98429.24;;;39.51;25.58
77118;BME280;66072;50.238;19.228;2023-06-10T11:41:26;98427.79;;;39.50;25.38
77118;BME280;66072;50.238;19.228;2023-06-10T11:43:55;98428.38;;;39.87;25.02
77118;BME280;66072;50.238;19.228;2023-06-10T11:46:23;98428.02;;;39.89;24.78
77118;BME280;66072;50.238;19.228;2023-06-10T11:48:52;98425.59;;;40.14;24.96
77118;BME280;66072;50.238;19.228;2023-06-10T11:51:20;98421.22;;;40.17;24.78
77118;BME280;66072;50.238;19.228;2023-06-10T11:53:48;98421.59;;;40.64;25.01
77118;BME280;66072;50.238;19.228;2023-06-10T11:56:24;98419.73;;;41.56;24.53
77118;BME280;66072;50.238;19.228;2023-06-10T11:59:03;98420.70;;;42.30;23.33
77118;BME280;66072;50.238;19.228;2023-06-10T12:01:33;98410.55;;;42.67;22.06
77118;BME280;66072;50.238;19.228;2023-06-10T12:04:06;98417.83;;;43.03;22.42
77118;BME280;66072;50.238;19.228;2023-06-10T12:06:50;98419.38;;;43.55;21.24
77118;BME280;66072;50.238;19.228;2023-06-10T12:09:20;98417.14;;;43.87;19.87
77118;BME280;66072;50.238;19.228;2023-06-10T12:11:58;98414.38;;;44.37;20.41
77118;BME280;66072;50.238;19.228;2023-06-10T12:14:54;98417.75;;;44.10;19.43
77118;BME280;66072;50.238;19.228;2023-06-10T12:20:03;98422.27;;;43.31;19.80
77118;BME280;66072;50.238;19.228;2023-06-10T12:22:42;98417.30;;;43.62;19.56
77118;BME280;66072;50.238;19.228;2023-06-10T12:25:11;98411.67;;;44.32;19.53
77118;BME280;66072;50.238;19.228;2023-06-10T12:27:40;98408.00;;;44.99;18.80
77118;BME280;66072;50.238;19.228;2023-06-10T12:30:21;98404.74;;;45.51;18.68
77118;BME280;66072;50.238;19.228;2023-06-10T12:32:50;98404.24;;;46.30;18.29
77118;BME280;66072;50.238;19.228;2023-06-10T12:35:22;98402.33;;;46.84;17.75
77118;BME280;66072;50.238;19.228;2023-06-10T12:38:02;98399.02;;;46.50;16.96
77118;BME280;66072;50.238;19.228;2023-06-10T12:40:32;98402.42;;;46.89;16.60
77118;BME280;66072;50.238;19.228;2023-06-10T12:43:01;98401.08;;;46.96;16.58
77118;BME280;66072;50.238;19.228;2023-06-10T12:45:36;98397.20;;;46.64;16.33
77118;BME280;66072;50.238;19.228;2023-06-10T12:50:55;98395.51;;;44.27;18.39
77118;BME280;66072;50.238;19.228;2023-06-10T12:53:27;98394.59;;;42.37;19.68
77118;BME280;66072;50.238;19.228;2023-06-10T12:55:54;98390.06;;;41.08;21.02
77118;BME280;66072;50.238;19.228;2023-06-10T12:58:22;98386.56;;;42.05;19.54
77118;BME280;66072;50.238;19.228;2023-06-10T13:00:50;98391.70;;;42.34;18.95
77118;BME280;66072;50.238;19.228;2023-06-10T13:03:18;98385.67;;;41.70;19.56
77118;BME280;66072;50.238;19.228;2023-06-10T13:05:46;98388.36;;;40.99;20.09
77118;BME280;66072;50.238;19.228;2023-06-10T13:08:13;98389.67;;;40.36;20.68
77118;BME280;66072;50.238;19.228;2023-06-10T13:10:41;98386.74;;;40.23;20.93
77118;BME280;66072;50.238;19.228;2023-06-10T13:13:09;98384.23;;;40.61;20.78
77118;BME280;66072;50.238;19.228;2023-06-10T13:15:37;98380.55;;;41.01;21.08
77118;BME280;66072;50.238;19.228;2023-06-10T13:18:10;98382.54;;;41.32;20.64
77118;BME280;66072;50.238;19.228;2023-06-10T13:20:38;98382.40;;;41.14;20.51
77118;BME280;66072;50.238;19.228;2023-06-10T13:23:06;98379.54;;;41.33;20.72
77118;BME280;66072;50.238;19.228;2023-06-10T13:25:34;98379.51;;;40.69;20.69
77118;BME280;66072;50.238;19.228;2023-06-10T13:28:02;98374.96;;;40.47;21.55
77118;BME280;66072;50.238;19.228;2023-06-10T13:30:30;98375.55;;;41.38;20.50
77118;BME280;66072;50.238;19.228;2023-06-10T13:32:58;98373.28;;;42.86;19.35